Manchester, VT

8:33 PM EST on December 21, 2014 (GMT -0500)
Hartness State | Change Station
CLOSE
Current Station
Airport
Location: Springfield,
Elevation: 574 ft
Nearby Weather Stations

Elev 574 ft 43.34 °N, 72.52 °W | Updated 39 minutes ago

Overcast
Overcast
29 °F
Feels Like 29 °F
N
0
Wind Variable Wind from North

Today
High -- | Low -- °F
--% Chance of Precip.
Yesterday
High -- | Low -- °F
Precip. -- in
7:20 AM 4:20 PM
Waning Crescent, 0% visible
Pressure 30.38 in
Visibility 5.0 miles
Clouds Few 2300 ft
Overcast 2900 ft
Dew Point 27 °F
Humidity 92%
Rainfall 0.02 in
Snow Depth Not available.
UV 0 out of 12
Pollen .10 out of 12
Air Quality Not available.
Flu Activity Not available.
METAR KVSF 220054Z AUTO 00000KT 5SM BR FEW023 OVC029 M02/M03 A3034 RMK AO2 SLP285 T10171028 TSNO

More Conditions Fewer Conditions

Pressure 30.38 in
Visibility 5.0 miles
Clouds Few 2300 ft
Overcast 2900 ft
Dew Point 27 °F
Humidity 92%
Rainfall 0.02 in
Snow Depth Not available.
UV 0 out of 12
Pollen .10 out of 12
Air Quality Not available.
Flu Activity Not available.
METAR KVSF 220054Z AUTO 00000KT 5SM BR FEW023 OVC029 M02/M03 A3034 RMK AO2 SLP285 T10171028 TSNO

More Conditions Fewer Conditions

10-Day Weather Forecast

Almanac

Astronomy

Dec. 21, 2014 Rise Set
Actual Time
Civil Twilight
Nautical Twilight
Astronomical Twilight
Moon
Length of Visible Light
Length of Day
Tomorrow will be .
, % of the Moon is Illuminated

Today's Extremes

State Highs State Lows

Community

WunderPhotos

Upload Photos

1,779,516 photos uploaded!

WunderBlogs® & News

Nearby

Air Quality

  Air Quality AQ Index Pollutant
Not available.

Snow Depth

Station Depth Elevation

Earthquake Activity

City Distance Mag. Time & Date
Minimum magnitude displayed is 2.5.

Coastal Water Temperatures

Place Temperature

Nearby Weather Stations